createdAt,value
2022-09-15T00:01:13.843Z,73.49
2022-09-15T00:03:43.603Z,73.32
2022-09-15T00:06:14.821Z,72.83
2022-09-15T00:08:44.414Z,73.28
2022-09-15T00:11:18.441Z,73.09
2022-09-15T00:13:48.483Z,73.41
2022-09-15T00:16:21.060Z,73.37
2022-09-15T00:18:50.433Z,73.38
2022-09-15T00:21:25.032Z,73.82
2022-09-15T00:23:54.990Z,74.03
2022-09-15T00:26:27.517Z,73.43
2022-09-15T00:28:57.827Z,74.17
2022-09-15T00:31:32.727Z,73.75
2022-09-15T00:34:04.193Z,73.48
2022-09-15T00:36:33.683Z,74.41
2022-09-15T00:39:02.929Z,74.43
2022-09-15T00:41:32.886Z,73.28
2022-09-15T00:44:04.269Z,74.07
2022-09-15T00:46:38.198Z,74.38
2022-09-15T00:49:15.387Z,73.41
2022-09-15T00:51:54.065Z,74.03
2022-09-15T00:54:28.274Z,74.09
2022-09-15T00:57:01.141Z,73.91
2022-09-15T00:59:35.118Z,74.28
2022-09-15T01:02:13.729Z,74.26
2022-09-15T01:04:43.154Z,74.59
2022-09-15T01:07:18.003Z,74.50
2022-09-15T01:09:54.513Z,74.07
2022-09-15T01:12:25.407Z,73.82
2022-09-15T01:14:54.683Z,74.80
2022-09-15T01:17:39.355Z,74.47
2022-09-15T01:20:55.558Z,74.73
2022-09-15T01:24:35.766Z,73.87
2022-09-15T01:27:41.690Z,74.09
2022-09-15T01:30:16.662Z,73.91
2022-09-15T01:33:22.519Z,74.24
2022-09-15T01:36:00.347Z,74.51
2022-09-15T01:38:55.810Z,74.62
2022-09-15T01:41:31.588Z,74.18
2022-09-15T01:44:07.713Z,74.41
2022-09-15T01:46:47.184Z,74.28
2022-09-15T01:49:21.293Z,75.34
2022-09-15T01:51:54.852Z,74.83
2022-09-15T01:54:30.886Z,76.04
2022-09-15T01:57:00.364Z,74.45
2022-09-15T01:59:29.939Z,75.00
2022-09-15T02:02:05.895Z,75.20
2022-09-15T02:04:41.937Z,75.27
2022-09-15T02:07:17.255Z,75.46
2022-09-15T02:09:52.396Z,75.74
2022-09-15T02:12:33.215Z,75.72
2022-09-15T02:15:08.777Z,75.86
2022-09-15T02:17:47.287Z,76.17
2022-09-15T02:20:23.865Z,76.17
2022-09-15T02:23:02.188Z,76.77
2022-09-15T02:25:36.082Z,75.55
2022-09-15T02:28:11.195Z,76.24
2022-09-15T02:30:44.200Z,75.60
2022-09-15T02:33:20.775Z,75.89
2022-09-15T02:35:51.950Z,76.46
2022-09-15T02:38:21.822Z,75.76
2022-09-15T02:40:51.155Z,76.98
2022-09-15T02:43:20.263Z,76.66
2022-09-15T02:45:49.750Z,76.73
2022-09-15T02:48:20.556Z,76.56
2022-09-15T02:50:49.724Z,76.23
2022-09-15T02:53:18.915Z,76.69
2022-09-15T02:55:47.997Z,75.80
2022-09-15T02:58:17.173Z,75.64
2022-09-15T03:00:46.365Z,76.63
2022-09-15T03:03:15.562Z,75.99
2022-09-15T03:05:46.087Z,76.58
2022-09-15T03:08:15.275Z,76.67
2022-09-15T03:10:44.443Z,76.72
2022-09-15T03:13:13.606Z,76.71
2022-09-15T03:15:43.251Z,76.98
2022-09-15T03:18:13.267Z,76.34
2022-09-15T03:20:42.433Z,77.13
2022-09-15T03:23:13.108Z,76.15
2022-09-15T03:25:42.232Z,76.65
2022-09-15T03:28:11.315Z,75.98
2022-09-15T03:30:40.660Z,76.03
2022-09-15T03:33:09.740Z,76.35
2022-09-15T03:35:39.471Z,76.16
2022-09-15T03:38:08.624Z,77.22
2022-09-15T03:40:39.226Z,76.98
2022-09-15T03:43:08.402Z,77.29
2022-09-15T03:45:38.025Z,77.68
2022-09-15T03:48:08.764Z,77.08
2022-09-15T03:50:37.892Z,76.70
2022-09-15T03:53:07.122Z,77.45
2022-09-15T03:55:36.329Z,77.08
2022-09-15T03:58:06.822Z,76.86
2022-09-15T04:00:36.221Z,77.44
2022-09-15T04:03:06.875Z,78.25
2022-09-15T04:05:36.798Z,78.30
2022-09-15T04:08:06.602Z,77.23
2022-09-15T04:10:39.006Z,77.86
2022-09-15T04:13:09.829Z,77.31
2022-09-15T04:15:38.985Z,77.51
2022-09-15T04:18:08.187Z,77.55
2022-09-15T04:20:40.759Z,77.83
2022-09-15T04:23:09.878Z,78.32
2022-09-15T04:25:39.003Z,78.12
2022-09-15T04:28:09.544Z,79.19
2022-09-15T04:30:38.790Z,78.68
2022-09-15T04:33:08.363Z,78.10
2022-09-15T04:35:37.653Z,77.92
2022-09-15T04:38:06.787Z,78.24
2022-09-15T04:40:35.950Z,78.51
2022-09-15T04:43:06.680Z,78.45
2022-09-15T04:45:37.220Z,78.56
2022-09-15T04:48:06.468Z,78.64
2022-09-15T04:50:35.666Z,78.31
2022-09-15T04:53:04.953Z,77.55
2022-09-15T04:55:34.286Z,78.35
2022-09-15T04:58:04.134Z,77.38
2022-09-15T05:00:43.672Z,77.72
2022-09-15T05:03:14.253Z,78.57
2022-09-15T05:05:43.530Z,77.91
2022-09-15T05:08:12.627Z,77.95
2022-09-15T05:10:41.741Z,78.98
2022-09-15T05:13:10.839Z,78.73
2022-09-15T05:15:41.530Z,78.13
2022-09-15T05:18:10.789Z,78.58
2022-09-15T05:20:40.078Z,77.83
2022-09-15T05:23:09.329Z,79.24
2022-09-15T05:25:38.853Z,79.29
2022-09-15T05:28:08.657Z,78.87
2022-09-15T05:30:44.547Z,78.81
2022-09-15T05:33:13.992Z,78.86
2022-09-15T05:35:52.690Z,78.14
2022-09-15T05:38:22.174Z,79.24
2022-09-15T05:40:51.826Z,79.34
2022-09-15T05:43:21.556Z,78.72
2022-09-15T05:45:57.531Z,79.79
2022-09-15T05:48:27.303Z,79.04
2022-09-15T05:50:58.327Z,79.54
2022-09-15T05:53:28.403Z,80.01
2022-09-15T05:55:58.605Z,80.17
2022-09-15T05:58:28.621Z,79.82
2022-09-15T06:01:05.329Z,80.76
2022-09-15T06:03:35.432Z,79.38
2022-09-15T06:06:06.490Z,80.17
2022-09-15T06:08:40.516Z,80.04
2022-09-15T06:11:16.279Z,79.52
2022-09-15T06:13:46.890Z,79.20
2022-09-15T06:16:20.644Z,79.44
2022-09-15T06:18:52.311Z,79.58
2022-09-15T06:21:24.353Z,79.29
2022-09-15T06:23:56.450Z,80.07
2022-09-15T06:26:26.842Z,78.95
2022-09-15T06:28:58.502Z,79.54
2022-09-15T06:31:32.995Z,79.53
2022-09-15T06:34:04.130Z,78.99
2022-09-15T06:36:34.105Z,78.97
2022-09-15T06:39:03.623Z,78.66
2022-09-15T06:41:58.332Z,79.16
2022-09-15T06:44:22.376Z,79.39
2022-09-15T06:46:52.912Z,78.74
2022-09-15T06:49:22.902Z,78.81
2022-09-15T06:51:52.620Z,78.12
2022-09-15T06:54:22.535Z,78.86
2022-09-15T06:56:53.097Z,78.90
2022-09-15T06:59:24.390Z,78.19
2022-09-15T07:01:56.200Z,77.17
2022-09-15T07:04:25.358Z,78.62
2022-09-15T07:06:54.576Z,78.72
2022-09-15T07:09:23.831Z,78.17
2022-09-15T07:11:52.946Z,78.60
2022-09-15T07:14:22.241Z,77.34
2022-09-15T07:16:51.448Z,77.40
2022-09-15T07:19:21.985Z,77.27
2022-09-15T07:21:52.897Z,78.05
2022-09-15T07:24:22.136Z,77.50
2022-09-15T07:26:52.119Z,76.75
2022-09-15T07:29:21.304Z,77.44
2022-09-15T07:31:50.813Z,77.37
2022-09-15T07:34:21.360Z,76.81
2022-09-15T07:36:50.882Z,75.91
2022-09-15T07:39:20.067Z,76.28
2022-09-15T07:41:49.188Z,75.14
2022-09-15T07:44:18.383Z,74.55
2022-09-15T07:46:47.508Z,74.01
2022-09-15T07:49:17.682Z,74.75
2022-09-15T07:51:48.296Z,73.07
2022-09-15T07:54:21.985Z,72.77
2022-09-15T07:56:52.128Z,73.90
2022-09-15T07:59:21.308Z,73.23
2022-09-15T08:01:51.323Z,72.79
2022-09-15T08:04:20.489Z,72.82
2022-09-15T08:06:52.760Z,71.84
2022-09-15T08:09:22.080Z,72.20
2022-09-15T08:11:51.188Z,71.67
2022-09-15T08:14:20.364Z,71.74
2022-09-15T08:16:49.629Z,71.32
2022-09-15T08:19:19.743Z,72.32
2022-09-15T08:21:50.652Z,71.99
2022-09-15T08:24:19.737Z,70.04
2022-09-15T08:26:48.868Z,66.49
2022-09-15T08:29:18.804Z,64.33
2022-09-15T08:31:48.753Z,60.80
2022-09-15T08:34:19.194Z,62.64
2022-09-15T08:36:48.305Z,59.57
2022-09-15T08:39:18.961Z,58.20
2022-09-15T08:41:51.682Z,59.23
2022-09-15T08:44:33.389Z,57.94
2022-09-15T08:47:11.416Z,58.08
2022-09-15T08:49:57.431Z,58.05
2022-09-15T08:52:34.681Z,58.39
2022-09-15T08:55:14.719Z,59.10
2022-09-15T08:57:45.028Z,59.18
2022-09-15T09:00:18.043Z,58.42
2022-09-15T09:03:14.658Z,58.19
2022-09-15T09:06:00.033Z,57.55
2022-09-15T09:09:13.491Z,57.22
2022-09-15T09:11:58.066Z,55.65
2022-09-15T09:14:40.944Z,56.17
2022-09-15T09:17:25.186Z,55.58
2022-09-15T09:20:33.471Z,56.33
2022-09-15T09:23:08.901Z,54.65
2022-09-15T09:25:38.853Z,53.76
2022-09-15T09:28:25.463Z,52.37
2022-09-15T09:30:56.155Z,51.40
2022-09-15T09:33:32.292Z,51.50
2022-09-15T09:36:02.533Z,50.89
2022-09-15T09:38:39.118Z,50.97
2022-09-15T09:41:14.894Z,51.82
2022-09-15T09:43:47.688Z,50.89
2022-09-15T09:46:20.387Z,50.38
2022-09-15T09:48:56.433Z,49.61
2022-09-15T09:51:35.997Z,47.94
2022-09-15T09:54:28.329Z,47.35
2022-09-15T09:57:19.154Z,45.97
2022-09-15T09:59:51.092Z,46.00
2022-09-15T10:02:22.942Z,45.37
2022-09-15T10:04:54.272Z,45.55
2022-09-15T10:07:27.242Z,47.24
2022-09-15T10:09:59.528Z,47.27
2022-09-15T10:12:33.285Z,47.48
2022-09-15T10:15:08.123Z,47.11
2022-09-15T10:17:44.077Z,45.82
2022-09-15T10:20:28.567Z,45.57
2022-09-15T10:23:07.173Z,46.08
2022-09-15T10:28:29.177Z,46.68
2022-09-15T10:31:05.460Z,46.33
2022-09-15T10:33:36.937Z,45.92
2022-09-15T10:36:13.034Z,46.34
2022-09-15T10:38:46.725Z,46.71
2022-09-15T10:41:29.199Z,45.34
2022-09-15T10:44:31.073Z,45.76
2022-09-15T10:47:14.005Z,45.29
2022-09-15T10:50:01.482Z,45.34
2022-09-15T10:52:43.626Z,43.84
2022-09-15T10:55:51.124Z,44.65
2022-09-15T10:58:41.070Z,46.19
2022-09-15T11:01:41.285Z,44.95
2022-09-15T11:05:10.399Z,44.56
2022-09-15T11:07:49.187Z,45.11
2022-09-15T11:10:26.504Z,45.03
2022-09-15T11:13:05.378Z,44.93
2022-09-15T11:15:56.729Z,45.39
2022-09-15T11:18:54.689Z,46.53
2022-09-15T11:21:31.173Z,47.69
2022-09-15T11:24:32.972Z,48.12
2022-09-15T11:27:12.543Z,48.62
2022-09-15T11:30:02.968Z,48.07
2022-09-15T11:32:42.662Z,46.65
2022-09-15T11:35:40.362Z,46.05
2022-09-15T11:38:29.650Z,46.60
2022-09-15T11:41:16.546Z,46.49
2022-09-15T11:44:00.246Z,47.37
2022-09-15T11:46:46.995Z,47.26
2022-09-15T11:49:21.917Z,48.19
2022-09-15T11:51:58.299Z,47.86
2022-09-15T11:54:38.828Z,47.89
2022-09-15T11:57:16.257Z,47.85
2022-09-15T11:59:53.149Z,47.61
2022-09-15T12:02:40.056Z,45.76
2022-09-15T12:05:15.168Z,46.47
2022-09-15T12:07:51.378Z,46.62
2022-09-15T12:10:27.846Z,45.79
2022-09-15T12:12:57.702Z,44.35
2022-09-15T12:15:28.333Z,44.07
2022-09-15T12:18:37.086Z,43.61
2022-09-15T12:21:13.109Z,43.93
2022-09-15T12:23:46.658Z,43.88
2022-09-15T12:26:21.504Z,42.24
2022-09-15T12:28:57.808Z,41.89
2022-09-15T12:31:36.841Z,42.50
2022-09-15T12:34:25.317Z,43.07
2022-09-15T12:36:56.691Z,42.58
2022-09-15T12:39:32.937Z,42.64
2022-09-15T12:42:21.653Z,41.83
2022-09-15T12:44:55.908Z,42.32
2022-09-15T12:47:39.434Z,41.98
2022-09-15T12:50:29.016Z,41.51
2022-09-15T12:53:02.337Z,41.68
2022-09-15T12:55:36.592Z,40.03
2022-09-15T12:58:16.493Z,40.18
2022-09-15T13:01:16.649Z,39.92
2022-09-15T13:04:24.170Z,39.45
2022-09-15T13:07:37.280Z,39.58
2022-09-15T13:10:35.871Z,40.10
2022-09-15T13:13:33.411Z,41.04
2022-09-15T13:16:03.766Z,41.88
2022-09-15T13:18:35.146Z,42.65
2022-09-15T13:21:13.941Z,42.26
2022-09-15T13:23:48.317Z,40.24
2022-09-15T13:26:24.403Z,38.63
2022-09-15T13:28:59.058Z,38.02
2022-09-15T13:31:40.227Z,36.96
2022-09-15T13:35:20.731Z,35.48
2022-09-15T13:38:31.598Z,34.63
2022-09-15T13:41:40.252Z,33.87
2022-09-15T13:44:55.794Z,32.34
2022-09-15T13:47:39.331Z,31.88
2022-09-15T13:50:18.300Z,33.44
2022-09-15T13:53:09.021Z,33.91
2022-09-15T13:55:39.704Z,32.94
2022-09-15T14:01:08.703Z,34.02
2022-09-15T14:03:45.575Z,33.96
2022-09-15T14:06:18.861Z,32.54
2022-09-15T14:08:53.653Z,32.83
2022-09-15T14:11:28.725Z,32.80
2022-09-15T14:14:00.748Z,33.50
2022-09-15T14:16:37.524Z,32.40
2022-09-15T14:19:34.108Z,33.92
2022-09-15T14:22:19.253Z,34.21
2022-09-15T14:24:48.872Z,34.67
2022-09-15T14:27:25.658Z,35.63
2022-09-15T14:29:58.223Z,35.54
2022-09-15T14:32:31.562Z,35.43
2022-09-15T14:35:05.585Z,35.45
2022-09-15T14:37:35.203Z,35.19
2022-09-15T14:40:23.968Z,34.85
2022-09-15T14:42:53.269Z,35.98
2022-09-15T14:48:18.985Z,35.59
2022-09-15T14:50:59.442Z,35.08
2022-09-15T14:53:31.551Z,35.33
2022-09-15T14:56:08.477Z,35.47
2022-09-15T14:58:43.290Z,35.22
2022-09-15T15:01:18.152Z,35.09
2022-09-15T15:03:57.307Z,35.96
2022-09-15T15:06:32.827Z,38.06
2022-09-15T15:09:07.655Z,38.86
2022-09-15T15:11:39.682Z,39.87
2022-09-15T15:14:12.557Z,40.46
2022-09-15T15:16:52.858Z,41.23
2022-09-15T15:19:36.315Z,42.05
2022-09-15T15:22:17.302Z,42.44
2022-09-15T15:24:50.100Z,41.62
2022-09-15T15:27:43.833Z,42.00
2022-09-15T15:30:47.130Z,42.05
2022-09-15T15:33:25.593Z,43.11
2022-09-15T15:36:08.971Z,42.08
2022-09-15T15:38:47.201Z,41.93
2022-09-15T15:41:23.221Z,42.26
2022-09-15T15:44:08.205Z,42.53
2022-09-15T15:46:53.319Z,42.79
2022-09-15T15:49:27.501Z,43.02
2022-09-15T15:51:59.639Z,43.25
2022-09-15T15:54:29.532Z,43.22
2022-09-15T15:57:23.323Z,43.22
2022-09-15T15:59:57.652Z,42.65
2022-09-15T16:02:28.569Z,43.23
2022-09-15T16:04:57.743Z,42.96
2022-09-15T16:07:33.129Z,42.97
2022-09-15T16:10:03.665Z,43.05
2022-09-15T16:12:34.810Z,43.24
2022-09-15T16:15:13.160Z,43.57
2022-09-15T16:17:46.013Z,43.25
2022-09-15T16:20:16.991Z,43.39
2022-09-15T16:22:47.534Z,42.65
2022-09-15T16:25:19.982Z,42.93
2022-09-15T16:27:49.124Z,43.20
2022-09-15T16:30:18.397Z,44.08
2022-09-15T16:32:47.488Z,43.74
2022-09-15T16:35:28.209Z,43.98
2022-09-15T16:37:58.902Z,43.98
2022-09-15T16:40:28.371Z,44.17
2022-09-15T16:42:57.573Z,44.47
2022-09-15T16:45:36.516Z,43.92
2022-09-15T16:48:09.220Z,44.56
2022-09-15T16:50:42.657Z,44.95
2022-09-15T16:53:18.992Z,45.10
2022-09-15T16:55:49.755Z,44.89
2022-09-15T16:58:22.248Z,44.82
2022-09-15T17:00:53.764Z,45.07
2022-09-15T17:03:25.698Z,45.34
2022-09-15T17:05:57.522Z,44.98
2022-09-15T17:08:30.588Z,45.33
2022-09-15T17:11:01.956Z,46.18
2022-09-15T17:13:33.590Z,46.01
2022-09-15T17:16:04.020Z,46.03
2022-09-15T17:18:33.415Z,46.57
2022-09-15T17:21:02.558Z,46.09
2022-09-15T17:23:38.105Z,46.62
2022-09-15T17:26:12.534Z,46.39
2022-09-15T17:28:42.320Z,46.20
2022-09-15T17:31:16.685Z,46.44
2022-09-15T17:33:46.782Z,46.63
2022-09-15T17:36:16.219Z,46.62
2022-09-15T17:38:48.955Z,46.80
2022-09-15T17:41:20.677Z,46.82
2022-09-15T17:43:50.004Z,46.96
2022-09-15T17:46:19.124Z,47.01
2022-09-15T17:48:48.523Z,47.35
2022-09-15T17:51:18.498Z,47.76
2022-09-15T17:53:49.255Z,47.91
2022-09-15T17:56:18.453Z,48.51
2022-09-15T17:58:47.611Z,48.95
2022-09-15T18:01:17.506Z,49.04
2022-09-15T18:03:47.168Z,48.82
2022-09-15T18:06:16.326Z,48.28
2022-09-15T18:08:45.937Z,48.17
2022-09-15T18:11:16.835Z,47.98
2022-09-15T18:13:46.096Z,48.15
2022-09-15T18:16:16.089Z,48.74
2022-09-15T18:18:45.385Z,48.86
2022-09-15T18:21:27.009Z,48.80
2022-09-15T18:23:56.175Z,48.90
2022-09-15T18:26:27.040Z,49.59
2022-09-15T18:28:56.400Z,49.66
2022-09-15T18:31:25.583Z,50.26
2022-09-15T18:33:54.938Z,50.44
2022-09-15T18:36:24.098Z,51.33
2022-09-15T18:38:53.338Z,51.73
2022-09-15T18:41:22.743Z,51.95
2022-09-15T18:43:53.288Z,53.37
2022-09-15T18:46:22.615Z,53.18
2022-09-15T18:48:51.785Z,53.24
2022-09-15T18:51:29.088Z,54.59
2022-09-15T18:54:04.401Z,54.51
2022-09-15T18:56:33.705Z,54.61
2022-09-15T18:59:04.355Z,54.98
2022-09-15T19:01:34.827Z,54.77
2022-09-15T19:04:04.404Z,54.97
2022-09-15T19:06:33.666Z,55.60
2022-09-15T19:09:02.889Z,55.20
2022-09-15T19:11:32.202Z,56.05
2022-09-15T19:14:03.232Z,55.61
2022-09-15T19:16:53.904Z,55.99
2022-09-15T19:19:22.498Z,56.19
2022-09-15T19:21:51.754Z,55.81
2022-09-15T19:24:21.433Z,56.67
2022-09-15T19:26:50.633Z,56.29
2022-09-15T19:29:21.244Z,57.00
2022-09-15T19:31:50.510Z,57.22
2022-09-15T19:34:19.806Z,57.72
2022-09-15T19:36:49.020Z,56.99
2022-09-15T19:39:18.335Z,57.11
2022-09-15T19:41:47.560Z,57.41
2022-09-15T19:44:17.258Z,57.20
2022-09-15T19:46:48.479Z,57.61
2022-09-15T19:49:17.799Z,57.89
2022-09-15T19:51:47.180Z,57.48
2022-09-15T19:54:16.375Z,58.43
2022-09-15T19:56:45.576Z,57.52
2022-09-15T19:59:14.824Z,58.65
2022-09-15T20:01:44.467Z,58.66
2022-09-15T20:04:15.867Z,58.57
2022-09-15T20:06:45.154Z,57.79
2022-09-15T20:09:14.376Z,58.13
2022-09-15T20:11:43.694Z,58.27
2022-09-15T20:14:12.907Z,58.41
2022-09-15T20:16:42.599Z,58.57
2022-09-15T20:19:11.890Z,59.21
2022-09-15T20:21:51.343Z,58.77
2022-09-15T20:24:21.963Z,58.72
2022-09-15T20:26:51.579Z,58.98
2022-09-15T20:29:21.604Z,58.79
2022-09-15T20:31:50.771Z,58.44
2022-09-15T20:34:20.138Z,58.82
2022-09-15T20:36:50.988Z,58.68
2022-09-15T20:39:22.473Z,58.20
2022-09-15T20:41:51.878Z,58.17
2022-09-15T20:44:20.995Z,57.98
2022-09-15T20:46:50.221Z,58.37
2022-09-15T20:49:19.800Z,58.83
2022-09-15T20:51:51.745Z,58.00
2022-09-15T20:54:21.068Z,58.11
2022-09-15T20:56:50.252Z,58.35
2022-09-15T20:59:19.587Z,57.50
2022-09-15T21:01:49.140Z,57.94
2022-09-15T21:04:19.120Z,58.70
2022-09-15T21:06:50.046Z,58.52
2022-09-15T21:09:19.288Z,58.04
2022-09-15T21:11:53.277Z,58.82
2022-09-15T21:14:22.948Z,58.23
2022-09-15T21:16:52.208Z,58.17
2022-09-15T21:19:21.450Z,57.95
2022-09-15T21:21:52.055Z,58.76
2022-09-15T21:24:24.552Z,58.58
2022-09-15T21:27:11.291Z,58.67
2022-09-15T21:29:41.015Z,58.70
2022-09-15T21:32:10.233Z,58.68
2022-09-15T21:34:39.570Z,58.74
2022-09-15T21:37:10.444Z,59.50
2022-09-15T21:39:39.704Z,59.78
2022-09-15T21:42:10.286Z,59.62
2022-09-15T21:44:39.457Z,60.29
2022-09-15T21:47:09.048Z,59.97
2022-09-15T21:49:38.313Z,60.79
2022-09-15T21:52:11.452Z,60.87
2022-09-15T21:54:40.739Z,60.71
2022-09-15T21:57:10.397Z,60.76
2022-09-15T21:59:39.773Z,60.36
2022-09-15T22:02:11.744Z,61.61
2022-09-15T22:04:41.045Z,62.96
2022-09-15T22:07:11.764Z,61.60
2022-09-15T22:09:41.043Z,61.94
2022-09-15T22:12:10.710Z,62.46
2022-09-15T22:14:39.936Z,62.72
2022-09-15T22:17:09.203Z,62.69
2022-09-15T22:19:38.379Z,62.67
2022-09-15T22:22:08.269Z,62.73
2022-09-15T22:24:39.182Z,62.34
2022-09-15T22:27:08.412Z,62.12
2022-09-15T22:29:37.565Z,63.16
2022-09-15T22:32:09.536Z,62.57
2022-09-15T22:34:38.949Z,62.31
2022-09-15T22:37:08.214Z,62.37
2022-09-15T22:39:58.144Z,62.66
2022-09-15T22:42:28.574Z,62.27
2022-09-15T22:45:01.037Z,62.58
2022-09-15T22:47:30.223Z,62.63
2022-09-15T22:49:59.885Z,63.51
2022-09-15T22:52:29.089Z,63.78
2022-09-15T22:55:04.672Z,63.10
2022-09-15T22:57:37.333Z,63.48
2022-09-15T23:00:08.664Z,63.34
2022-09-15T23:02:40.561Z,63.11
2022-09-15T23:05:10.718Z,63.57
2022-09-15T23:07:40.003Z,63.74
2022-09-15T23:10:15.777Z,63.45
2022-09-15T23:12:45.399Z,62.73
2022-09-15T23:15:15.089Z,62.27
2022-09-15T23:17:44.354Z,62.28
2022-09-15T23:20:19.945Z,62.57
2022-09-15T23:22:49.078Z,63.05
2022-09-15T23:25:19.767Z,62.48
2022-09-15T23:27:48.910Z,61.46
2022-09-15T23:30:18.836Z,62.29
2022-09-15T23:32:48.027Z,62.91
2022-09-15T23:35:17.254Z,62.53
2022-09-15T23:37:46.419Z,61.75
2022-09-15T23:40:15.904Z,62.77
2022-09-15T23:42:46.579Z,62.70
2022-09-15T23:45:15.919Z,63.22
2022-09-15T23:47:45.116Z,62.50
2022-09-15T23:50:14.254Z,62.89
2022-09-15T23:52:43.361Z,62.70
2022-09-15T23:55:12.812Z,62.89
2022-09-15T23:57:42.073Z,62.66
